< < Back
Terminal Aerodrome Forecast


Current Version              Previous Versions:   1  2  3  4  5  6  7  8  9  

Terminal Aerodrome Forecast

479
FTUS42 KCAE 181300 AAA
TAFAGS
TAF AMD
KAGS 181325Z 1813/1912 VRB04KT 4SM -RA BR SCT006 BKN012
      TEMPO 1813/1815 2SM SHRA BR BKN006
     FM181500 VRB04KT P6SM VCSH BKN020
     FM181800 VRB04KT P6SM VCSH BKN035
     FM190600 12006KT 3SM RA OVC008=

Latest METAR

983
SAUS70 KWBC 181300 RRF
MTRAGS
METAR KAGS 181253Z 04007KT 2SM -RA BR BKN008 BKN017 OVC036 18/18 A2997
RMK AO2 SLP149 P0017 T01830178


USA.gov is the U.S. government's official web portal to all federal, state and local government web resources and services.